sensor_id;sensor_type;location;lat;lon;timestamp;pressure;altitude;pressure_sealevel;temperature;humidity
41967;BME280;27656;53.068;8.818;2023-09-19T00:00:35;100421.41;;;15.93;100.00
41967;BME280;27656;53.068;8.818;2023-09-19T00:03:02;100420.81;;;15.98;100.00
41967;BME280;27656;53.068;8.818;2023-09-19T00:05:34;100429.41;;;16.00;100.00
41967;BME280;27656;53.068;8.818;2023-09-19T00:08:01;100427.16;;;16.03;100.00
41967;BME280;27656;53.068;8.818;2023-09-19T00:10:32;100431.84;;;16.01;100.00
41967;BME280;27656;53.068;8.818;2023-09-19T00:13:02;100431.84;;;16.01;100.00
41967;BME280;27656;53.068;8.818;2023-09-19T00:15:39;100443.56;;;16.07;100.00
41967;BME280;27656;53.068;8.818;2023-09-19T00:18:07;100435.16;;;16.03;100.00
41967;BME280;27656;53.068;8.818;2023-09-19T00:20:36;100452.78;;;16.04;100.00
41967;BME280;27656;53.068;8.818;2023-09-19T00:23:04;100454.41;;;16.05;100.00
41967;BME280;27656;53.068;8.818;2023-09-19T00:25:31;100442.53;;;16.08;100.00
41967;BME280;27656;53.068;8.818;2023-09-19T00:27:58;100439.06;;;16.07;100.00
41967;BME280;27656;53.068;8.818;2023-09-19T00:30:25;100449.09;;;16.12;100.00
41967;BME280;27656;53.068;8.818;2023-09-19T00:32:52;100457.28;;;16.10;100.00
41967;BME280;27656;53.068;8.818;2023-09-19T00:35:21;100456.47;;;16.17;100.00
41967;BME280;27656;53.068;8.818;2023-09-19T00:37:51;100449.94;;;16.26;100.00
41967;BME280;27656;53.068;8.818;2023-09-19T00:40:18;100452.78;;;16.24;100.00
41967;BME280;27656;53.068;8.818;2023-09-19T00:42:46;100460.16;;;16.22;100.00
41967;BME280;27656;53.068;8.818;2023-09-19T00:45:14;100466.94;;;16.25;100.00
41967;BME280;27656;53.068;8.818;2023-09-19T00:47:46;100476.59;;;16.26;100.00
41967;BME280;27656;53.068;8.818;2023-09-19T00:50:20;100476.78;;;16.24;100.00
41967;BME280;27656;53.068;8.818;2023-09-19T00:52:49;100471.25;;;16.26;100.00
41967;BME280;27656;53.068;8.818;2023-09-19T00:55:17;100473.91;;;16.26;100.00
41967;BME280;27656;53.068;8.818;2023-09-19T00:57:47;100472.28;;;16.31;100.00
41967;BME280;27656;53.068;8.818;2023-09-19T01:00:16;100468.59;;;16.32;100.00
41967;BME280;27656;53.068;8.818;2023-09-19T01:02:46;100482.72;;;16.26;100.00
41967;BME280;27656;53.068;8.818;2023-09-19T01:05:13;100474.72;;;16.26;100.00
41967;BME280;27656;53.068;8.818;2023-09-19T01:07:40;100487.44;;;16.24;100.00
41967;BME280;27656;53.068;8.818;2023-09-19T01:10:13;100490.72;;;16.26;100.00
41967;BME280;27656;53.068;8.818;2023-09-19T01:18:59;100504.00;;;16.20;100.00
41967;BME280;27656;53.068;8.818;2023-09-19T01:21:23;100506.88;;;16.11;100.00
41967;BME280;27656;53.068;8.818;2023-09-19T01:27:06;100519.47;;;15.83;100.00
41967;BME280;27656;53.068;8.818;2023-09-19T01:32:06;100521.59;;;15.66;100.00
41967;BME280;27656;53.068;8.818;2023-09-19T01:34:46;100528.72;;;15.52;100.00
41967;BME280;27656;53.068;8.818;2023-09-19T01:37:17;100526.78;;;15.39;100.00
41967;BME280;27656;53.068;8.818;2023-09-19T01:39:49;100535.94;;;15.30;100.00
41967;BME280;27656;53.068;8.818;2023-09-19T01:48:35;100534.19;;;15.09;100.00
41967;BME280;27656;53.068;8.818;2023-09-19T01:51:07;100540.09;;;15.04;100.00
41967;BME280;27656;53.068;8.818;2023-09-19T01:56:08;100544.06;;;14.94;100.00
41967;BME280;27656;53.068;8.818;2023-09-19T01:58:46;100545.47;;;14.90;100.00
41967;BME280;27656;53.068;8.818;2023-09-19T02:01:20;100556.31;;;14.88;100.00
41967;BME280;27656;53.068;8.818;2023-09-19T02:03:49;100557.88;;;14.82;100.00
41967;BME280;27656;53.068;8.818;2023-09-19T02:06:18;100555.03;;;14.84;100.00
41967;BME280;27656;53.068;8.818;2023-09-19T02:08:45;100564.84;;;14.83;100.00
41967;BME280;27656;53.068;8.818;2023-09-19T02:11:13;100563.41;;;14.81;100.00
41967;BME280;27656;53.068;8.818;2023-09-19T02:13:40;100563.13;;;14.76;100.00
41967;BME280;27656;53.068;8.818;2023-09-19T02:16:09;100568.19;;;14.71;100.00
41967;BME280;27656;53.068;8.818;2023-09-19T02:18:38;100563.53;;;14.73;100.00
41967;BME280;27656;53.068;8.818;2023-09-19T02:21:05;100562.13;;;14.77;100.00
41967;BME280;27656;53.068;8.818;2023-09-19T02:23:33;100564.91;;;14.69;100.00
41967;BME280;27656;53.068;8.818;2023-09-19T02:25:59;100572.19;;;14.60;100.00
41967;BME280;27656;53.068;8.818;2023-09-19T02:28:30;100570.19;;;14.47;100.00
41967;BME280;27656;53.068;8.818;2023-09-19T02:30:59;100563.41;;;14.45;100.00
41967;BME280;27656;53.068;8.818;2023-09-19T02:33:25;100570.31;;;14.39;100.00
41967;BME280;27656;53.068;8.818;2023-09-19T02:35:55;100571.13;;;14.39;100.00
41967;BME280;27656;53.068;8.818;2023-09-19T02:38:27;100575.50;;;14.47;100.00
41967;BME280;27656;53.068;8.818;2023-09-19T02:40:53;100575.25;;;14.42;100.00
41967;BME280;27656;53.068;8.818;2023-09-19T02:43:22;100577.72;;;14.43;100.00
41967;BME280;27656;53.068;8.818;2023-09-19T02:45:49;100576.44;;;14.39;100.00
41967;BME280;27656;53.068;8.818;2023-09-19T02:48:16;100582.78;;;14.38;100.00
41967;BME280;27656;53.068;8.818;2023-09-19T02:50:45;100588.00;;;14.32;100.00
41967;BME280;27656;53.068;8.818;2023-09-19T02:53:12;100587.19;;;14.31;100.00
41967;BME280;27656;53.068;8.818;2023-09-19T02:55:39;100583.63;;;14.24;100.00
41967;BME280;27656;53.068;8.818;2023-09-19T02:58:07;100592.59;;;14.23;100.00
41967;BME280;27656;53.068;8.818;2023-09-19T03:00:41;100586.50;;;14.08;100.00
41967;BME280;27656;53.068;8.818;2023-09-19T03:03:14;100601.31;;;14.02;100.00
41967;BME280;27656;53.068;8.818;2023-09-19T03:05:42;100595.75;;;13.97;100.00
41967;BME280;27656;53.068;8.818;2023-09-19T03:08:14;100592.84;;;13.92;100.00
41967;BME280;27656;53.068;8.818;2023-09-19T03:10:46;100593.75;;;13.84;100.00
41967;BME280;27656;53.068;8.818;2023-09-19T03:13:13;100589.66;;;13.82;100.00
41967;BME280;27656;53.068;8.818;2023-09-19T03:15:43;100598.53;;;13.74;100.00
41967;BME280;27656;53.068;8.818;2023-09-19T03:18:12;100602.19;;;13.73;100.00
41967;BME280;27656;53.068;8.818;2023-09-19T03:20:39;100605.75;;;13.65;100.00
41967;BME280;27656;53.068;8.818;2023-09-19T03:23:06;100600.34;;;13.58;100.00
41967;BME280;27656;53.068;8.818;2023-09-19T03:25:35;100606.38;;;13.67;100.00
41967;BME280;27656;53.068;8.818;2023-09-19T03:28:03;100609.59;;;13.63;100.00
41967;BME280;27656;53.068;8.818;2023-09-19T03:30:32;100621.47;;;13.52;100.00
41967;BME280;27656;53.068;8.818;2023-09-19T03:33:00;100622.00;;;13.47;100.00
41967;BME280;27656;53.068;8.818;2023-09-19T03:35:27;100621.34;;;13.45;100.00
41967;BME280;27656;53.068;8.818;2023-09-19T03:37:53;100634.53;;;13.39;100.00
41967;BME280;27656;53.068;8.818;2023-09-19T03:40:20;100633.16;;;13.43;100.00
41967;BME280;27656;53.068;8.818;2023-09-19T03:42:48;100626.22;;;13.42;100.00
41967;BME280;27656;53.068;8.818;2023-09-19T03:45:15;100623.81;;;13.32;100.00
41967;BME280;27656;53.068;8.818;2023-09-19T03:47:42;100622.84;;;13.25;100.00
41967;BME280;27656;53.068;8.818;2023-09-19T03:50:09;100627.34;;;13.24;100.00
41967;BME280;27656;53.068;8.818;2023-09-19T03:52:41;100619.56;;;13.23;100.00
41967;BME280;27656;53.068;8.818;2023-09-19T03:55:08;100619.19;;;13.26;100.00
41967;BME280;27656;53.068;8.818;2023-09-19T03:57:36;100626.63;;;13.30;100.00
41967;BME280;27656;53.068;8.818;2023-09-19T04:00:04;100621.03;;;13.25;100.00
41967;BME280;27656;53.068;8.818;2023-09-19T04:02:31;100631.28;;;13.28;100.00
41967;BME280;27656;53.068;8.818;2023-09-19T04:04:59;100626.84;;;13.21;100.00
41967;BME280;27656;53.068;8.818;2023-09-19T04:07:26;100637.09;;;13.24;100.00
41967;BME280;27656;53.068;8.818;2023-09-19T04:09:55;100634.97;;;13.27;100.00
41967;BME280;27656;53.068;8.818;2023-09-19T04:12:21;100640.59;;;13.24;100.00
41967;BME280;27656;53.068;8.818;2023-09-19T04:14:48;100639.47;;;13.19;100.00
41967;BME280;27656;53.068;8.818;2023-09-19T04:17:16;100639.56;;;13.25;100.00
41967;BME280;27656;53.068;8.818;2023-09-19T04:19:43;100642.59;;;13.22;100.00
41967;BME280;27656;53.068;8.818;2023-09-19T04:22:11;100639.81;;;13.15;100.00
41967;BME280;27656;53.068;8.818;2023-09-19T04:24:39;100639.19;;;13.13;100.00
41967;BME280;27656;53.068;8.818;2023-09-19T04:27:06;100628.22;;;13.16;100.00
41967;BME280;27656;53.068;8.818;2023-09-19T04:29:33;100629.06;;;13.17;100.00
41967;BME280;27656;53.068;8.818;2023-09-19T04:32:00;100636.53;;;13.13;100.00
41967;BME280;27656;53.068;8.818;2023-09-19T04:34:26;100638.66;;;13.18;100.00
41967;BME280;27656;53.068;8.818;2023-09-19T04:36:54;100642.47;;;13.15;100.00
41967;BME280;27656;53.068;8.818;2023-09-19T04:39:23;100638.81;;;13.16;100.00
41967;BME280;27656;53.068;8.818;2023-09-19T04:41:51;100634.53;;;13.15;100.00
41967;BME280;27656;53.068;8.818;2023-09-19T04:44:19;100633.75;;;13.07;100.00
41967;BME280;27656;53.068;8.818;2023-09-19T04:46:45;100638.41;;;13.05;100.00
41967;BME280;27656;53.068;8.818;2023-09-19T04:49:15;100639.59;;;13.02;100.00
41967;BME280;27656;53.068;8.818;2023-09-19T04:51:42;100653.50;;;13.04;100.00
41967;BME280;27656;53.068;8.818;2023-09-19T04:54:09;100651.03;;;13.03;100.00
41967;BME280;27656;53.068;8.818;2023-09-19T04:56:35;100652.38;;;12.99;100.00
41967;BME280;27656;53.068;8.818;2023-09-19T04:59:02;100653.56;;;12.96;100.00
41967;BME280;27656;53.068;8.818;2023-09-19T05:01:29;100661.16;;;12.99;100.00
41967;BME280;27656;53.068;8.818;2023-09-19T05:03:55;100655.84;;;12.99;100.00
41967;BME280;27656;53.068;8.818;2023-09-19T05:06:22;100667.91;;;13.02;100.00
41967;BME280;27656;53.068;8.818;2023-09-19T05:08:49;100669.59;;;13.03;100.00
41967;BME280;27656;53.068;8.818;2023-09-19T05:11:21;100667.88;;;13.10;100.00
41967;BME280;27656;53.068;8.818;2023-09-19T05:13:50;100668.41;;;13.05;100.00
41967;BME280;27656;53.068;8.818;2023-09-19T05:16:19;100681.47;;;13.07;100.00
41967;BME280;27656;53.068;8.818;2023-09-19T05:18:46;100679.59;;;13.15;100.00
41967;BME280;27656;53.068;8.818;2023-09-19T05:21:12;100690.84;;;13.18;100.00
41967;BME280;27656;53.068;8.818;2023-09-19T05:23:39;100694.59;;;13.23;100.00
41967;BME280;27656;53.068;8.818;2023-09-19T05:26:06;100684.25;;;13.36;100.00
41967;BME280;27656;53.068;8.818;2023-09-19T05:28:33;100674.97;;;13.55;100.00
41967;BME280;27656;53.068;8.818;2023-09-19T05:31:01;100673.72;;;13.66;100.00
41967;BME280;27656;53.068;8.818;2023-09-19T05:33:30;100669.03;;;13.68;100.00
41967;BME280;27656;53.068;8.818;2023-09-19T05:35:58;100677.94;;;13.75;100.00
41967;BME280;27656;53.068;8.818;2023-09-19T05:38:25;100680.31;;;13.85;100.00
41967;BME280;27656;53.068;8.818;2023-09-19T05:40:54;100695.97;;;13.95;100.00
41967;BME280;27656;53.068;8.818;2023-09-19T05:43:21;100692.88;;;14.06;100.00
41967;BME280;27656;53.068;8.818;2023-09-19T05:45:48;100694.91;;;14.19;100.00
41967;BME280;27656;53.068;8.818;2023-09-19T05:48:15;100689.84;;;14.24;100.00
41967;BME280;27656;53.068;8.818;2023-09-19T05:50:43;100691.31;;;14.27;100.00
41967;BME280;27656;53.068;8.818;2023-09-19T05:53:11;100678.19;;;14.40;100.00
41967;BME280;27656;53.068;8.818;2023-09-19T05:55:39;100682.78;;;14.46;100.00
41967;BME280;27656;53.068;8.818;2023-09-19T05:58:06;100693.22;;;14.48;100.00
41967;BME280;27656;53.068;8.818;2023-09-19T06:00:33;100683.78;;;14.60;100.00
41967;BME280;27656;53.068;8.818;2023-09-19T06:03:03;100695.19;;;14.75;100.00
41967;BME280;27656;53.068;8.818;2023-09-19T06:05:30;100699.94;;;14.80;100.00
41967;BME280;27656;53.068;8.818;2023-09-19T06:07:58;100698.22;;;14.72;100.00
41967;BME280;27656;53.068;8.818;2023-09-19T06:10:27;100703.81;;;14.77;100.00
41967;BME280;27656;53.068;8.818;2023-09-19T06:12:58;100719.56;;;14.79;100.00
41967;BME280;27656;53.068;8.818;2023-09-19T06:15:25;100715.06;;;14.79;100.00
41967;BME280;27656;53.068;8.818;2023-09-19T06:17:54;100731.03;;;14.79;100.00
41967;BME280;27656;53.068;8.818;2023-09-19T06:20:22;100716.53;;;14.82;100.00
41967;BME280;27656;53.068;8.818;2023-09-19T06:22:49;100714.34;;;14.86;100.00
41967;BME280;27656;53.068;8.818;2023-09-19T06:25:16;100716.44;;;14.90;100.00
41967;BME280;27656;53.068;8.818;2023-09-19T06:27:50;100718.00;;;14.84;100.00
41967;BME280;27656;53.068;8.818;2023-09-19T06:30:21;100713.88;;;14.82;100.00
41967;BME280;27656;53.068;8.818;2023-09-19T06:32:49;100719.84;;;14.84;100.00
41967;BME280;27656;53.068;8.818;2023-09-19T06:35:21;100716.88;;;14.94;100.00
41967;BME280;27656;53.068;8.818;2023-09-19T06:37:48;100712.06;;;15.04;100.00
41967;BME280;27656;53.068;8.818;2023-09-19T06:40:15;100714.16;;;15.09;100.00
41967;BME280;27656;53.068;8.818;2023-09-19T06:42:43;100727.13;;;15.18;100.00
41967;BME280;27656;53.068;8.818;2023-09-19T06:45:15;100721.38;;;15.15;99.26
41967;BME280;27656;53.068;8.818;2023-09-19T06:47:46;100719.63;;;15.22;98.40
41967;BME280;27656;53.068;8.818;2023-09-19T06:50:17;100730.13;;;15.30;99.56
41967;BME280;27656;53.068;8.818;2023-09-19T06:52:46;100730.00;;;15.38;97.63
41967;BME280;27656;53.068;8.818;2023-09-19T06:55:14;100738.47;;;15.48;97.25
41967;BME280;27656;53.068;8.818;2023-09-19T06:57:42;100737.50;;;15.56;95.04
41967;BME280;27656;53.068;8.818;2023-09-19T07:00:12;100738.78;;;15.60;95.86
41967;BME280;27656;53.068;8.818;2023-09-19T07:02:53;100742.97;;;15.69;94.48
41967;BME280;27656;53.068;8.818;2023-09-19T07:05:20;100751.78;;;15.70;93.71
41967;BME280;27656;53.068;8.818;2023-09-19T07:07:48;100754.28;;;15.72;94.21
41967;BME280;27656;53.068;8.818;2023-09-19T07:10:14;100751.44;;;15.73;92.80
41967;BME280;27656;53.068;8.818;2023-09-19T07:12:41;100768.22;;;15.74;90.53
41967;BME280;27656;53.068;8.818;2023-09-19T07:15:09;100766.84;;;15.63;91.37
41967;BME280;27656;53.068;8.818;2023-09-19T07:17:36;100766.75;;;15.71;91.06
41967;BME280;27656;53.068;8.818;2023-09-19T07:20:03;100760.38;;;15.94;88.82
41967;BME280;27656;53.068;8.818;2023-09-19T07:22:34;100762.47;;;16.33;87.50
41967;BME280;27656;53.068;8.818;2023-09-19T07:25:01;100772.03;;;16.56;84.85
41967;BME280;27656;53.068;8.818;2023-09-19T07:27:28;100764.72;;;16.71;82.76
41967;BME280;27656;53.068;8.818;2023-09-19T07:29:55;100769.47;;;16.75;82.92
41967;BME280;27656;53.068;8.818;2023-09-19T07:32:21;100762.72;;;16.80;83.03
41967;BME280;27656;53.068;8.818;2023-09-19T07:34:48;100764.91;;;16.69;80.49
41967;BME280;27656;53.068;8.818;2023-09-19T07:37:15;100770.88;;;16.71;80.24
41967;BME280;27656;53.068;8.818;2023-09-19T07:39:42;100767.41;;;16.78;80.43
41967;BME280;27656;53.068;8.818;2023-09-19T07:42:09;100762.19;;;16.98;78.37
41967;BME280;27656;53.068;8.818;2023-09-19T07:44:37;100771.28;;;17.23;77.67
41967;BME280;27656;53.068;8.818;2023-09-19T07:47:04;100766.19;;;17.55;77.26
41967;BME280;27656;53.068;8.818;2023-09-19T07:49:31;100755.31;;;17.76;74.77
41967;BME280;27656;53.068;8.818;2023-09-19T07:51:58;100759.41;;;17.72;70.80
41967;BME280;27656;53.068;8.818;2023-09-19T07:54:25;100766.22;;;17.82;72.31
41967;BME280;27656;53.068;8.818;2023-09-19T07:56:53;100775.25;;;18.00;71.85
41967;BME280;27656;53.068;8.818;2023-09-19T07:59:20;100756.34;;;18.02;71.95
41967;BME280;27656;53.068;8.818;2023-09-19T08:01:47;100756.94;;;18.17;70.86
41967;BME280;27656;53.068;8.818;2023-09-19T08:04:14;100767.41;;;18.19;68.89
41967;BME280;27656;53.068;8.818;2023-09-19T08:06:41;100772.13;;;18.37;69.47
41967;BME280;27656;53.068;8.818;2023-09-19T08:09:07;100770.44;;;18.49;68.22
41967;BME280;27656;53.068;8.818;2023-09-19T08:11:37;100789.78;;;18.44;66.31
41967;BME280;27656;53.068;8.818;2023-09-19T08:14:03;100793.25;;;18.58;65.90
41967;BME280;27656;53.068;8.818;2023-09-19T08:16:32;100790.75;;;18.63;64.86
41967;BME280;27656;53.068;8.818;2023-09-19T08:18:59;100790.66;;;18.90;65.21
41967;BME280;27656;53.068;8.818;2023-09-19T08:21:25;100784.44;;;19.03;61.98
41967;BME280;27656;53.068;8.818;2023-09-19T08:23:55;100784.41;;;19.10;63.61
41967;BME280;27656;53.068;8.818;2023-09-19T08:26:23;100787.84;;;19.17;62.05
41967;BME280;27656;53.068;8.818;2023-09-19T08:28:50;100783.63;;;18.96;64.39
41967;BME280;27656;53.068;8.818;2023-09-19T08:31:18;100781.09;;;19.07;63.42
41967;BME280;27656;53.068;8.818;2023-09-19T08:33:44;100786.97;;;18.91;62.89
41967;BME280;27656;53.068;8.818;2023-09-19T08:36:15;100793.84;;;18.60;64.42
41967;BME280;27656;53.068;8.818;2023-09-19T08:38:41;100780.47;;;18.60;63.94
41967;BME280;27656;53.068;8.818;2023-09-19T08:41:08;100790.34;;;18.60;63.81
41967;BME280;27656;53.068;8.818;2023-09-19T08:43:35;100800.81;;;18.75;64.40
41967;BME280;27656;53.068;8.818;2023-09-19T08:48:32;100794.72;;;19.06;64.96
41967;BME280;27656;53.068;8.818;2023-09-19T08:51:12;100796.06;;;19.22;60.28
41967;BME280;27656;53.068;8.818;2023-09-19T08:54:08;100791.91;;;19.33;59.92
41967;BME280;27656;53.068;8.818;2023-09-19T08:56:41;100784.97;;;19.18;60.88
41967;BME280;27656;53.068;8.818;2023-09-19T08:59:08;100789.53;;;19.18;61.98
41967;BME280;27656;53.068;8.818;2023-09-19T09:01:36;100785.88;;;19.05;63.08
41967;BME280;27656;53.068;8.818;2023-09-19T09:04:07;100798.50;;;18.92;62.06
41967;BME280;27656;53.068;8.818;2023-09-19T09:06:35;100799.63;;;19.16;61.67
41967;BME280;27656;53.068;8.818;2023-09-19T09:09:02;100801.03;;;19.50;62.51
41967;BME280;27656;53.068;8.818;2023-09-19T09:11:33;100814.03;;;19.53;59.26
41967;BME280;27656;53.068;8.818;2023-09-19T09:13:59;100811.06;;;19.30;61.06
41967;BME280;27656;53.068;8.818;2023-09-19T09:16:26;100809.50;;;19.15;59.88
41967;BME280;27656;53.068;8.818;2023-09-19T09:18:53;100804.06;;;19.28;61.02
41967;BME280;27656;53.068;8.818;2023-09-19T09:21:22;100807.16;;;19.57;59.46
41967;BME280;27656;53.068;8.818;2023-09-19T09:23:49;100802.94;;;19.81;57.75
41967;BME280;27656;53.068;8.818;2023-09-19T09:29:05;100797.16;;;19.78;60.48
41967;BME280;27656;53.068;8.818;2023-09-19T09:31:31;100795.53;;;19.77;58.04
41967;BME280;27656;53.068;8.818;2023-09-19T09:33:58;100801.31;;;19.74;56.81
41967;BME280;27656;53.068;8.818;2023-09-19T09:39:01;100806.59;;;19.87;58.45
41967;BME280;27656;53.068;8.818;2023-09-19T09:41:43;100802.63;;;19.89;55.44
41967;BME280;27656;53.068;8.818;2023-09-19T09:44:27;100799.06;;;20.21;55.57
41967;BME280;27656;53.068;8.818;2023-09-19T09:46:58;100807.00;;;20.52;52.28
41967;BME280;27656;53.068;8.818;2023-09-19T09:49:47;100811.09;;;20.55;53.22
41967;BME280;27656;53.068;8.818;2023-09-19T09:52:20;100820.00;;;20.56;52.08
41967;BME280;27656;53.068;8.818;2023-09-19T09:55:01;100823.56;;;20.68;51.94
41967;BME280;27656;53.068;8.818;2023-09-19T09:57:31;100822.97;;;20.66;51.89
41967;BME280;27656;53.068;8.818;2023-09-19T09:59:59;100818.56;;;20.28;54.07
41967;BME280;27656;53.068;8.818;2023-09-19T10:02:42;100827.69;;;20.02;54.96
41967;BME280;27656;53.068;8.818;2023-09-19T10:05:15;100815.84;;;20.09;55.40
41967;BME280;27656;53.068;8.818;2023-09-19T10:07:54;100823.47;;;20.12;54.83
41967;BME280;27656;53.068;8.818;2023-09-19T10:10:39;100822.06;;;19.85;55.53
41967;BME280;27656;53.068;8.818;2023-09-19T10:13:10;100803.63;;;19.70;56.96
41967;BME280;27656;53.068;8.818;2023-09-19T10:15:43;100823.72;;;19.47;56.00
41967;BME280;27656;53.068;8.818;2023-09-19T10:18:20;100823.72;;;19.47;55.89
41967;BME280;27656;53.068;8.818;2023-09-19T10:20:47;100812.81;;;19.49;57.57
41967;BME280;27656;53.068;8.818;2023-09-19T10:23:19;100811.28;;;19.28;58.01
41967;BME280;27656;53.068;8.818;2023-09-19T10:25:50;100808.47;;;19.16;58.08
41967;BME280;27656;53.068;8.818;2023-09-19T10:28:18;100829.53;;;18.99;59.36
41967;BME280;27656;53.068;8.818;2023-09-19T10:30:50;100824.44;;;18.91;59.16
41967;BME280;27656;53.068;8.818;2023-09-19T10:33:18;100827.91;;;18.98;59.12
41967;BME280;27656;53.068;8.818;2023-09-19T10:35:49;100815.66;;;19.16;59.19
41967;BME280;27656;53.068;8.818;2023-09-19T10:38:19;100814.72;;;19.35;58.49
41967;BME280;27656;53.068;8.818;2023-09-19T10:40:52;100822.44;;;19.57;57.53
41967;BME280;27656;53.068;8.818;2023-09-19T10:43:20;100818.59;;;19.78;56.88
41967;BME280;27656;53.068;8.818;2023-09-19T10:45:49;100820.84;;;19.81;54.22
41967;BME280;27656;53.068;8.818;2023-09-19T10:48:19;100818.47;;;20.16;53.52
41967;BME280;27656;53.068;8.818;2023-09-19T10:51:08;100810.88;;;20.57;53.67
41967;BME280;27656;53.068;8.818;2023-09-19T10:54:06;100804.78;;;21.16;53.62
41967;BME280;27656;53.068;8.818;2023-09-19T10:56:39;100802.50;;;21.62;52.23
41967;BME280;27656;53.068;8.818;2023-09-19T10:59:10;100807.38;;;21.53;49.88
41967;BME280;27656;53.068;8.818;2023-09-19T11:01:56;100815.19;;;21.43;51.40
41967;BME280;27656;53.068;8.818;2023-09-19T11:04:35;100810.34;;;21.33;49.82
41967;BME280;27656;53.068;8.818;2023-09-19T11:07:10;100816.63;;;20.79;49.77
41967;BME280;27656;53.068;8.818;2023-09-19T11:09:47;100803.16;;;20.67;52.60
41967;BME280;27656;53.068;8.818;2023-09-19T11:14:55;100807.22;;;20.51;52.04
41967;BME280;27656;53.068;8.818;2023-09-19T11:30:45;100787.78;;;21.34;50.02
41967;BME280;27656;53.068;8.818;2023-09-19T11:39:00;100792.50;;;21.09;49.72
41967;BME280;27656;53.068;8.818;2023-09-19T11:41:38;100783.75;;;21.13;49.94
41967;BME280;27656;53.068;8.818;2023-09-19T11:49:29;100772.22;;;21.43;49.97
41967;BME280;27656;53.068;8.818;2023-09-19T11:51:57;100786.38;;;21.50;46.73
41967;BME280;27656;53.068;8.818;2023-09-19T11:54:24;100791.88;;;21.37;48.78
41967;BME280;27656;53.068;8.818;2023-09-19T11:56:55;100780.34;;;21.06;48.51
41967;BME280;27656;53.068;8.818;2023-09-19T11:59:26;100795.81;;;21.23;49.04
41967;BME280;27656;53.068;8.818;2023-09-19T12:02:06;100794.97;;;21.41;48.44
41967;BME280;27656;53.068;8.818;2023-09-19T12:04:39;100798.69;;;21.39;47.62
41967;BME280;27656;53.068;8.818;2023-09-19T12:07:09;100806.63;;;21.16;49.12
41967;BME280;27656;53.068;8.818;2023-09-19T12:09:50;100806.22;;;21.19;49.48
41967;BME280;27656;53.068;8.818;2023-09-19T12:12:22;100799.41;;;21.16;48.65
41967;BME280;27656;53.068;8.818;2023-09-19T12:15:14;100797.31;;;21.18;47.93
41967;BME280;27656;53.068;8.818;2023-09-19T12:17:41;100792.94;;;21.06;48.49
41967;BME280;27656;53.068;8.818;2023-09-19T12:20:10;100790.19;;;21.12;49.50
41967;BME280;27656;53.068;8.818;2023-09-19T12:26:14;100769.56;;;21.25;47.11
41967;BME280;27656;53.068;8.818;2023-09-19T12:28:41;100772.50;;;20.93;49.40
41967;BME280;27656;53.068;8.818;2023-09-19T12:31:11;100767.25;;;20.98;49.02
41967;BME280;27656;53.068;8.818;2023-09-19T12:33:40;100782.47;;;21.16;49.37
41967;BME280;27656;53.068;8.818;2023-09-19T12:36:21;100772.34;;;21.48;49.03
41967;BME280;27656;53.068;8.818;2023-09-19T12:39:22;100764.38;;;21.42;48.63
41967;BME280;27656;53.068;8.818;2023-09-19T12:41:51;100773.03;;;21.44;48.60
41967;BME280;27656;53.068;8.818;2023-09-19T12:44:18;100768.19;;;21.34;46.69
41967;BME280;27656;53.068;8.818;2023-09-19T12:46:44;100767.34;;;21.22;48.12
41967;BME280;27656;53.068;8.818;2023-09-19T12:49:16;100758.25;;;21.34;48.28
41967;BME280;27656;53.068;8.818;2023-09-19T12:51:45;100761.38;;;21.50;47.54
41967;BME280;27656;53.068;8.818;2023-09-19T12:54:20;100753.78;;;21.58;47.67
41967;BME280;27656;53.068;8.818;2023-09-19T12:57:24;100756.38;;;21.77;46.18
41967;BME280;27656;53.068;8.818;2023-09-19T12:59:54;100745.63;;;21.77;46.58
41967;BME280;27656;53.068;8.818;2023-09-19T13:02:21;100730.91;;;21.91;47.18
41967;BME280;27656;53.068;8.818;2023-09-19T13:04:53;100731.22;;;22.07;47.23
41967;BME280;27656;53.068;8.818;2023-09-19T13:07:43;100721.06;;;21.62;47.99
41967;BME280;27656;53.068;8.818;2023-09-19T13:10:11;100718.03;;;21.46;48.33
41967;BME280;27656;53.068;8.818;2023-09-19T13:12:42;100730.66;;;21.46;49.83
41967;BME280;27656;53.068;8.818;2023-09-19T13:15:14;100719.47;;;21.30;50.15
41967;BME280;27656;53.068;8.818;2023-09-19T13:17:47;100714.00;;;21.37;50.52
41967;BME280;27656;53.068;8.818;2023-09-19T13:20:22;100715.50;;;21.33;50.77
41967;BME280;27656;53.068;8.818;2023-09-19T13:22:54;100720.59;;;21.41;49.47
41967;BME280;27656;53.068;8.818;2023-09-19T13:25:25;100714.78;;;21.79;49.61
41967;BME280;27656;53.068;8.818;2023-09-19T13:27:55;100726.44;;;21.97;48.64
41967;BME280;27656;53.068;8.818;2023-09-19T13:30:25;100704.72;;;22.22;47.87
41967;BME280;27656;53.068;8.818;2023-09-19T13:33:03;100714.28;;;22.18;48.34
41967;BME280;27656;53.068;8.818;2023-09-19T13:35:32;100712.09;;;21.91;47.84
41967;BME280;27656;53.068;8.818;2023-09-19T13:37:59;100701.81;;;21.88;48.53
41967;BME280;27656;53.068;8.818;2023-09-19T13:40:26;100700.16;;;21.99;49.18
41967;BME280;27656;53.068;8.818;2023-09-19T13:42:57;100705.41;;;22.06;50.40
41967;BME280;27656;53.068;8.818;2023-09-19T13:45:23;100703.81;;;21.81;48.00
41967;BME280;27656;53.068;8.818;2023-09-19T13:47:51;100710.78;;;21.82;49.26
41967;BME280;27656;53.068;8.818;2023-09-19T13:50:17;100701.09;;;22.05;49.40
41967;BME280;27656;53.068;8.818;2023-09-19T13:52:50;100697.09;;;22.31;48.71
41967;BME280;27656;53.068;8.818;2023-09-19T13:55:17;100698.50;;;22.10;49.72
41967;BME280;27656;53.068;8.818;2023-09-19T13:57:47;100712.31;;;21.66;49.09